EHGG Airport Information

Runway Information
Runway 01 Length 4922 ft width 148 ft
Elevation 16 ft Threshold 0 ft Heading 9
Runway 19 Length 4922 ft Width 148 ft
Elevation 12 ft Threshold 0 ft Heading 189
Runway 05 Length 8202 ft width 148 ft
Elevation 13 ft Threshold 0 ft Heading 52
Runway 23 Length 8202 ft Width 148 ft
Elevation 13 ft Threshold 0 ft Heading 232
Airport Frequencies
Type APP Name APP Frequency 120.3 MHZ
Type ATIS Name ATIS Frequency 133.55 MHZ
Type GCCD Name GND/CLNC D Frequency 121.7 MHZ
Type TWR Name TWR Frequency 118.7 MHZ
Airport Navaids
Type VOR-DME Name Eelde Frequency 112400 KHZ
Type NDB Name Eelde Frequency 330 KHZ
Airport Weather Information & NOTAM
ADDS - METARS form results

(1317 UTC 22 June 2018)
 
METAR text: EHGG 221255Z AUTO 32015KT 270V350 9999 BKN024 BKN028 OVC032 14/10 Q1024 REDZ TEMPO 7000 SHRA FEW020CB
Conditions at: EHGG (GRONINGEN/EELDE , NL) observed 1255 UTC 22 June 2018
Temperature: 14.0°C (57°F)
Dewpoint: 10.0°C (50°F) [RH = 77%]
Pressure (altimeter): 30.24 inches Hg (1024.0 mb)
Winds: from the NW (320 degrees) at 17 MPH (15 knots; 7.8 m/s)
Visibility: 6 or more miles (10+ km)
Ceiling: 2400 feet AGL
Clouds: broken clouds at 2400 feet AGL
broken clouds at 2800 feet AGL
overcast cloud deck at 3200 feet AGL
Weather: no significant weather observed at this time

METAR text: EHGG 221225Z AUTO 31016KT 270V340 9999 SCT019 BKN022 OVC027 14/10 Q1024 TEMPO 7000 SHRA FEW020CB
Conditions at: EHGG (GRONINGEN/EELDE , NL) observed 1225 UTC 22 June 2018
Temperature: 14.0°C (57°F)
Dewpoint: 10.0°C (50°F) [RH = 77%]
Pressure (altimeter): 30.24 inches Hg (1024.0 mb)
Winds: from the NW (310 degrees) at 18 MPH (16 knots; 8.3 m/s)
Visibility: 6 or more miles (10+ km)
Ceiling: 2200 feet AGL
Clouds: scattered clouds at 1900 feet AGL
broken clouds at 2200 feet AGL
overcast cloud deck at 2700 feet AGL
Weather: no significant weather observed at this time